Time;durP1;ratioP1;P1;durP2;ratioP2;P2;SDS_P1;SDS_P2;PMS_P1;PMS_P2;Temp;Humidity;BMP_temperature;BMP_pressure;BME280_temperature;BME280_humidity;BME280_pressure;Samples;Min_cycle;Max_cycle;Signal;HPM_P1;HPM_P2
2022/12/08 00:01:07;;;;;;;28.73;17.67;;;26.30;99.90;;;;;;5074099;28;20035;-71
2022/12/08 00:03:35;;;;;;;31.00;20.63;;;26.20;99.90;;;;;;5074022;28;20020;-70
2022/12/08 00:11:38;;;;;;;35.92;22.75;;;26.40;99.90;;;;;;5073900;28;20071;-71
2022/12/08 00:14:04;;;;;;;32.28;22.13;;;26.30;99.90;;;;;;5073747;28;20086;-71
2022/12/08 00:16:31;;;;;;;27.83;19.27;;;26.40;99.90;;;;;;5073861;28;20025;-71
2022/12/08 00:18:57;;;;;;;437.77;361.15;;;26.40;99.90;;;;;;5073777;28;20021;-71
2022/12/08 00:21:24;;;;;;;124.20;89.15;;;26.50;99.90;;;;;;5073554;28;20086;-71
2022/12/08 00:23:53;;;;;;;73.90;44.08;;;26.50;99.90;;;;;;5073936;28;20024;-71
2022/12/08 00:26:20;;;;;;;43.60;29.98;;;26.60;99.90;;;;;;5073777;28;20046;-70
2022/12/08 00:28:46;;;;;;;37.75;27.67;;;26.60;99.90;;;;;;5073541;28;20358;-71
2022/12/08 00:31:13;;;;;;;43.67;34.20;;;26.60;99.90;;;;;;5073554;28;20617;-72
2022/12/08 00:33:39;;;;;;;51.75;40.53;;;26.60;99.90;;;;;;5073816;28;20434;-71
2022/12/08 00:36:07;;;;;;;42.22;31.27;;;26.50;99.90;;;;;;5073324;28;20063;-71
2022/12/08 00:38:34;;;;;;;50.13;40.20;;;26.50;99.90;;;;;;5073540;28;20405;-71
2022/12/08 00:41:01;;;;;;;62.80;36.72;;;26.50;99.90;;;;;;5073528;28;20473;-71
2022/12/08 00:43:28;;;;;;;44.67;30.10;;;26.50;99.90;;;;;;5073386;28;20052;-72
2022/12/08 00:45:54;;;;;;;37.33;27.65;;;26.50;99.90;;;;;;5073538;28;20082;-72
2022/12/08 00:48:21;;;;;;;37.35;28.90;;;26.50;99.90;;;;;;5073076;28;20072;-72
2022/12/08 00:50:47;;;;;;;37.53;29.08;;;26.50;99.90;;;;;;5073008;28;20104;-71
2022/12/08 00:53:14;;;;;;;43.40;29.42;;;26.50;99.90;;;;;;5073529;28;20028;-73
2022/12/08 00:55:41;;;;;;;43.78;30.83;;;26.50;99.90;;;;;;5073445;28;20028;-72
2022/12/08 00:58:07;;;;;;;55.35;34.97;;;26.50;99.90;;;;;;5085335;28;20451;-71
2022/12/08 01:00:34;;;;;;;60.97;34.00;;;26.60;99.90;;;;;;5092025;28;20115;-71
2022/12/08 01:03:03;;;;;;;58.30;36.20;;;26.60;99.90;;;;;;5093420;28;20047;-71
2022/12/08 01:05:30;;;;;;;56.95;40.22;;;26.70;99.90;;;;;;5093495;28;20016;-72
2022/12/08 01:07:56;;;;;;;53.22;33.65;;;26.70;99.90;;;;;;5093408;28;20548;-71
2022/12/08 01:10:23;;;;;;;51.78;32.63;;;26.70;99.90;;;;;;5093551;28;20032;-71
2022/12/08 01:12:49;;;;;;;50.85;32.58;;;26.80;99.90;;;;;;5093405;28;20023;-71
2022/12/08 01:15:16;;;;;;;44.67;27.38;;;26.80;99.90;;;;;;5093192;28;20017;-71
2022/12/08 01:17:42;;;;;;;46.00;26.25;;;26.90;99.90;;;;;;5093408;28;20028;-71
2022/12/08 01:20:09;;;;;;;36.95;23.95;;;27.00;99.90;;;;;;5093179;28;20042;-71
2022/12/08 01:22:36;;;;;;;37.80;24.83;;;27.00;99.90;;;;;;5086577;28;20027;-72
2022/12/08 01:25:02;;;;;;;37.83;23.35;;;27.10;99.90;;;;;;5093346;28;20020;-70
2022/12/08 01:27:29;;;;;;;42.47;22.20;;;27.20;99.90;;;;;;5074346;28;20023;-72
2022/12/08 01:29:55;;;;;;;43.00;21.98;;;27.20;99.90;;;;;;5072860;28;20020;-71
2022/12/08 01:32:22;;;;;;;37.88;19.83;;;27.30;99.90;;;;;;5073099;28;20024;-71
2022/12/08 01:34:48;;;;;;;38.80;19.95;;;27.40;99.90;;;;;;5072934;28;20070;-70
2022/12/08 01:37:15;;;;;;;39.60;21.65;;;27.50;99.90;;;;;;5072939;28;20083;-71
2022/12/08 01:39:41;;;;;;;42.72;22.30;;;27.60;99.90;;;;;;5072897;28;20476;-71
2022/12/08 01:42:21;;;;;;;54.10;22.80;;;27.60;99.90;;;;;;5072967;28;20532;-70
2022/12/08 01:44:54;;;;;;;37.35;21.90;;;27.60;99.90;;;;;;5073010;28;20031;-71
2022/12/08 01:47:24;;;;;;;36.58;22.17;;;27.70;99.90;;;;;;5072647;28;20550;-72
2022/12/08 01:49:51;;;;;;;44.35;28.20;;;27.80;99.90;;;;;;5072756;28;20111;-71
2022/12/08 01:52:28;;;;;;;60.20;40.00;;;27.80;99.90;;;;;;5072743;28;20029;-73
2022/12/08 01:55:18;;;;;;;89.30;54.80;;;27.90;99.90;;;;;;5072771;28;20024;-71
2022/12/08 01:57:48;;;;;;;148.07;86.72;;;28.00;99.90;;;;;;5102605;28;20483;-71
2022/12/08 02:00:18;;;;;;;174.02;87.20;;;28.10;99.90;;;;;;5102251;28;20507;-72
2022/12/08 02:02:58;;;;;;;69.35;39.03;;;28.10;99.90;;;;;;5094165;28;20384;-72
2022/12/08 02:05:29;;;;;;;43.58;26.90;;;28.20;99.90;;;;;;5106905;28;20016;-70
2022/12/08 02:07:57;;;;;;;653.35;437.45;;;28.30;99.90;;;;;;5106115;28;20081;-71
2022/12/08 02:10:27;;;;;;;152.30;88.75;;;28.30;99.90;;;;;;5104959;28;20082;-70
2022/12/08 02:12:57;;;;;;;41.80;26.25;;;28.40;99.90;;;;;;5106204;28;20020;-70
2022/12/08 02:15:31;;;;;;;35.90;23.00;;;28.40;99.90;;;;;;5107302;28;20038;-69
2022/12/08 02:18:06;;;;;;;62.28;38.60;;;28.50;99.90;;;;;;5116866;28;20020;-70
2022/12/08 02:20:48;;;;;;;41.15;20.02;;;28.60;99.90;;;;;;5110164;28;20036;-70
2022/12/08 02:23:34;;;;;;;34.50;21.10;;;28.70;99.90;;;;;;5103087;28;20058;-70
2022/12/08 02:26:24;;;;;;;35.00;20.25;;;28.80;99.90;;;;;;5031389;28;20053;-70
2022/12/08 02:29:00;;;;;;;38.13;22.58;;;28.80;99.90;;;;;;5030146;28;20460;-64
2022/12/08 02:31:27;;;;;;;81.07;44.20;;;28.90;99.90;;;;;;5030789;28;20032;-63
2022/12/08 02:34:23;;;;;;;103.90;52.63;;;29.00;99.90;;;;;;5032642;28;20137;-64
2022/12/08 02:36:59;;;;;;;129.90;63.20;;;29.00;99.90;;;;;;4915848;29;20052;-63
2022/12/08 02:39:39;;;;;;;116.22;52.50;;;29.10;99.90;;;;;;4913761;29;20028;-64
2022/12/08 02:42:29;;;;;;;133.63;52.53;;;29.10;99.90;;;;;;4913665;29;20049;-65
2022/12/08 02:45:13;;;;;;;137.40;53.55;;;29.10;99.90;;;;;;4914930;29;20039;-65
2022/12/08 02:47:40;;;;;;;121.35;62.47;;;29.20;99.90;;;;;;4915537;29;20462;-64
2022/12/08 02:50:07;;;;;;;52.80;29.42;;;29.30;99.90;;;;;;4915603;29;20031;-64
2022/12/08 02:52:40;;;;;;;90.60;35.03;;;29.30;99.90;;;;;;4915494;29;20036;-64
2022/12/08 02:55:14;;;;;;;49.17;25.48;;;29.30;99.90;;;;;;4913865;29;20032;-64
2022/12/08 02:57:51;;;;;;;38.00;19.70;;;29.40;99.90;;;;;;4993695;28;20030;-64
2022/12/08 03:00:22;;;;;;;36.15;17.33;;;29.50;99.90;;;;;;5001464;28;20475;-64
2022/12/08 03:03:13;;;;;;;124.28;57.80;;;29.60;99.90;;;;;;5001323;28;20476;-63
2022/12/08 03:05:50;;;;;;;50.83;26.45;;;29.70;99.90;;;;;;5003371;28;20037;-64
2022/12/08 03:08:18;;;;;;;25.92;14.48;;;29.70;99.90;;;;;;5085915;28;20055;-63
2022/12/08 03:10:52;;;;;;;22.30;13.30;;;29.80;99.90;;;;;;5104166;28;20023;-64
2022/12/08 03:13:26;;;;;;;19.98;13.60;;;29.90;99.90;;;;;;5105497;28;20043;-64
2022/12/08 03:15:54;;;;;;;23.33;13.52;;;29.80;99.90;;;;;;5105572;28;20197;-65
2022/12/08 03:18:26;;;;;;;24.92;16.00;;;29.80;99.90;;;;;;5101096;28;20016;-64
2022/12/08 03:20:52;;;;;;;17.23;12.37;;;29.80;99.90;;;;;;5105087;28;20606;-65
2022/12/08 03:23:21;;;;;;;41.50;16.67;;;29.90;99.90;;;;;;5103636;28;20055;-65
2022/12/08 03:25:55;;;;;;;31.92;16.92;;;29.90;99.90;;;;;;5104019;28;20042;-65
2022/12/08 03:28:22;;;;;;;23.77;12.57;;;30.00;99.90;;;;;;5101648;28;20108;-64
2022/12/08 03:30:54;;;;;;;26.70;13.63;;;30.00;99.90;;;;;;5103849;28;20030;-65
2022/12/08 03:33:30;;;;;;;23.92;11.95;;;30.00;99.90;;;;;;5101493;28;20024;-65
2022/12/08 03:36:00;;;;;;;27.88;12.45;;;30.20;99.90;;;;;;5103329;28;20472;-64
2022/12/08 03:38:41;;;;;;;24.30;10.90;;;30.20;99.90;;;;;;5104073;28;20019;-64
2022/12/08 03:41:17;;;;;;;21.30;11.52;;;30.30;99.90;;;;;;5103214;28;20103;-66
2022/12/08 03:43:54;;;;;;;23.52;12.55;;;30.30;99.90;;;;;;5096140;28;20434;-65
2022/12/08 03:46:23;;;;;;;23.05;13.02;;;30.20;99.90;;;;;;5101392;28;20028;-66
2022/12/08 03:48:50;;;;;;;20.00;11.77;;;30.20;99.90;;;;;;5103406;28;20387;-66
2022/12/08 03:51:17;;;;;;;22.85;11.35;;;30.30;99.90;;;;;;5105336;28;20019;-64
2022/12/08 03:53:45;;;;;;;27.90;13.13;;;30.40;99.90;;;;;;5104231;28;20028;-64
2022/12/08 03:56:25;;;;;;;20.08;10.25;;;30.40;99.90;;;;;;5103197;28;20024;-64
2022/12/08 03:58:52;;;;;;;25.30;13.00;;;30.50;99.90;;;;;;5103824;28;20117;-64
2022/12/08 04:01:19;;;;;;;22.52;10.52;;;30.60;99.90;;;;;;5099850;28;20431;-66
2022/12/08 04:03:45;;;;;;;20.65;9.38;;;30.60;99.90;;;;;;5103939;28;20031;-67
2022/12/08 04:06:12;;;;;;;12.07;8.73;;;30.50;99.90;;;;;;5105186;28;20016;-65
2022/12/08 04:08:39;;;;;;;20.95;12.32;;;30.60;99.90;;;;;;5094120;28;20061;-66
2022/12/08 04:11:06;;;;;;;11.15;8.80;;;30.70;99.90;;;;;;5102191;28;20023;-66
2022/12/08 04:13:34;;;;;;;55.08;37.55;;;30.70;99.90;;;;;;5104957;28;20492;-65
2022/12/08 04:16:01;;;;;;;39.45;29.23;;;30.70;99.90;;;;;;5089321;22;20056;-65
2022/12/08 04:18:28;;;;;;;16.48;11.02;;;30.60;99.90;;;;;;5062706;28;20033;-65
2022/12/08 04:20:55;;;;;;;19.58;9.52;;;30.60;99.90;;;;;;5063878;28;20374;-65
2022/12/08 04:23:22;;;;;;;13.77;8.32;;;30.60;99.90;;;;;;5062412;28;20025;-65
2022/12/08 04:25:49;;;;;;;10.10;8.65;;;30.70;99.90;;;;;;5062304;28;20025;-63
2022/12/08 04:28:16;;;;;;;11.32;8.13;;;30.70;99.90;;;;;;5064063;28;20021;-65
2022/12/08 04:30:43;;;;;;;16.48;8.32;;;30.70;99.90;;;;;;5062441;28;20025;-63
2022/12/08 04:33:09;;;;;;;11.73;8.07;;;30.80;99.90;;;;;;5062310;28;20056;-64
2022/12/08 04:35:36;;;;;;;13.63;8.05;;;30.90;99.90;;;;;;5064056;28;20074;-64
2022/12/08 04:38:03;;;;;;;14.07;8.43;;;30.90;99.90;;;;;;5062648;28;20017;-68
2022/12/08 04:40:29;;;;;;;15.23;9.25;;;30.90;99.90;;;;;;5062202;28;20013;-66
2022/12/08 04:42:56;;;;;;;14.75;8.82;;;31.00;99.90;;;;;;5063594;28;20017;-67
2022/12/08 04:45:22;;;;;;;12.15;8.32;;;30.90;99.90;;;;;;5059661;28;20045;-66
2022/12/08 04:47:49;;;;;;;19.90;8.48;;;31.00;99.90;;;;;;5061696;28;20123;-67
2022/12/08 04:50:15;;;;;;;17.08;8.07;;;31.00;99.90;;;;;;5061613;28;20103;-67
2022/12/08 04:52:42;;;;;;;20.05;9.18;;;31.00;99.90;;;;;;5063225;28;20025;-67
2022/12/08 04:55:09;;;;;;;13.38;7.93;;;30.90;99.90;;;;;;5062857;28;20040;-68
2022/12/08 04:57:35;;;;;;;12.68;8.48;;;30.90;99.90;;;;;;5061558;28;20017;-69
2022/12/08 05:00:04;;;;;;;14.57;9.77;;;30.90;99.90;;;;;;5062865;28;20047;-67
2022/12/08 05:02:31;;;;;;;12.55;7.47;;;30.90;99.90;;;;;;5058595;28;20021;-66
2022/12/08 05:04:58;;;;;;;16.90;7.97;;;31.00;99.90;;;;;;5061101;28;20021;-64
2022/12/08 05:07:24;;;;;;;12.57;7.07;;;31.00;99.90;;;;;;5062058;28;20013;-66
2022/12/08 05:09:51;;;;;;;26.35;11.13;;;31.10;99.90;;;;;;5073156;28;20507;-64
2022/12/08 05:12:17;;;;;;;23.02;9.88;;;31.10;99.90;;;;;;5073242;28;20385;-66
2022/12/08 05:14:45;;;;;;;22.13;11.43;;;31.20;99.90;;;;;;5073158;28;20556;-65
2022/12/08 05:17:12;;;;;;;17.35;10.48;;;31.20;99.90;;;;;;5073060;28;20052;-65
2022/12/08 05:19:38;;;;;;;18.90;8.55;;;31.30;99.90;;;;;;5072586;28;20036;-67
2022/12/08 05:22:05;;;;;;;13.98;7.38;;;31.30;99.90;;;;;;5073174;28;20017;-67
2022/12/08 05:24:31;;;;;;;14.52;10.13;;;31.20;99.90;;;;;;5071567;28;20362;-66
2022/12/08 05:26:58;;;;;;;28.10;16.17;;;31.20;99.90;;;;;;5073171;28;20020;-67
2022/12/08 05:29:25;;;;;;;14.30;6.85;;;31.30;99.90;;;;;;5073149;28;20140;-66
2022/12/08 05:31:51;;;;;;;9.38;7.07;;;31.40;99.90;;;;;;5071693;28;20020;-67
2022/12/08 05:34:18;;;;;;;10.02;7.05;;;31.30;99.90;;;;;;5073334;28;20083;-67
2022/12/08 05:36:44;;;;;;;15.73;10.25;;;31.30;99.90;;;;;;5073575;28;20028;-66
2022/12/08 05:39:13;;;;;;;14.57;7.75;;;31.30;99.90;;;;;;5077049;28;20025;-68
2022/12/08 05:41:40;;;;;;;20.00;9.57;;;31.40;99.90;;;;;;5076938;28;20032;-67
2022/12/08 05:44:07;;;;;;;10.73;7.15;;;31.60;99.90;;;;;;5077056;28;20025;-67
2022/12/08 05:46:36;;;;;;;8.35;6.53;;;31.70;99.90;;;;;;5056676;28;20368;-66
2022/12/08 05:49:03;;;;;;;10.10;7.90;;;31.70;99.90;;;;;;5044259;28;20017;-66
2022/12/08 05:51:30;;;;;;;9.43;7.60;;;31.70;99.90;;;;;;5056895;28;20033;-66
2022/12/08 05:53:57;;;;;;;11.50;7.63;;;31.70;99.90;;;;;;5056844;28;20057;-68
2022/12/08 05:56:23;;;;;;;11.90;7.85;;;31.70;99.90;;;;;;5050168;28;20505;-66
2022/12/08 05:58:50;;;;;;;11.77;7.90;;;31.70;99.90;;;;;;5036816;28;20068;-66
2022/12/08 06:01:23;;;;;;;10.23;7.80;;;31.70;99.90;;;;;;5036568;28;20556;-66
2022/12/08 06:03:50;;;;;;;9.50;7.32;;;31.90;99.90;;;;;;5039431;28;20087;-67
2022/12/08 06:06:16;;;;;;;11.82;7.65;;;32.00;99.90;;;;;;5048050;28;20591;-65
2022/12/08 06:08:43;;;;;;;11.70;7.93;;;31.90;99.90;;;;;;5056583;28;20033;-66
2022/12/08 06:11:09;;;;;;;13.45;7.47;;;31.90;99.90;;;;;;5056414;28;20025;-66
2022/12/08 06:13:36;;;;;;;15.38;7.50;;;31.90;99.90;;;;;;5057065;28;20496;-66
2022/12/08 06:16:04;;;;;;;8.40;6.93;;;31.90;99.90;;;;;;5056028;28;20142;-67
2022/12/08 06:18:31;;;;;;;10.77;7.85;;;31.90;99.90;;;;;;5059378;28;20106;-66
2022/12/08 06:21:05;;;;;;;15.38;8.90;;;31.80;99.90;;;;;;5054636;28;20029;-67
2022/12/08 06:23:32;;;;;;;13.73;8.77;;;31.90;99.90;;;;;;5053969;28;20017;-67
2022/12/08 06:26:16;;;;;;;20.35;15.73;;;31.90;99.90;;;;;;5054085;28;20094;-67
2022/12/08 06:28:43;;;;;;;45.17;29.98;;;31.90;99.90;;;;;;5054144;28;20025;-66
2022/12/08 06:31:20;;;;;;;44.05;31.70;;;32.00;99.90;;;;;;5053933;28;20029;-65
2022/12/08 06:33:47;;;;;;;33.65;23.25;;;31.90;99.90;;;;;;5060936;28;20033;-66
2022/12/08 06:36:15;;;;;;;39.03;23.05;;;32.00;99.90;;;;;;5064560;28;20037;-66
2022/12/08 06:38:41;;;;;;;30.95;20.27;;;32.00;99.90;;;;;;5064039;28;20029;-66
2022/12/08 06:41:08;;;;;;;29.30;21.13;;;32.10;99.90;;;;;;5064054;28;20040;-65
2022/12/08 06:43:35;;;;;;;37.33;28.48;;;32.10;99.90;;;;;;5062431;28;20023;-66
2022/12/08 06:46:03;;;;;;;44.13;24.20;;;32.10;99.90;;;;;;5060521;28;20496;-65
2022/12/08 06:48:30;;;;;;;51.85;28.38;;;32.10;99.90;;;;;;5060806;28;20055;-66
2022/12/08 06:50:57;;;;;;;38.85;29.02;;;32.20;99.90;;;;;;5064665;28;20466;-66
2022/12/08 06:53:23;;;;;;;30.48;16.00;;;32.10;99.90;;;;;;5064769;28;20060;-66
2022/12/08 06:55:53;;;;;;;13.73;7.70;;;32.10;99.90;;;;;;5060251;28;20033;-66
2022/12/08 06:58:20;;;;;;;9.15;7.18;;;32.20;99.90;;;;;;5045274;28;20112;-64
2022/12/08 07:00:47;;;;;;;9.63;7.80;;;32.30;99.90;;;;;;5045744;28;20057;-65
2022/12/08 07:03:14;;;;;;;8.75;6.82;;;32.30;99.90;;;;;;5045431;28;20110;-66
2022/12/08 07:05:40;;;;;;;9.98;8.05;;;32.30;99.90;;;;;;5047042;28;20462;-66
2022/12/08 07:08:08;;;;;;;10.48;7.75;;;32.40;99.90;;;;;;5039997;28;20099;-65
2022/12/08 07:10:35;;;;;;;36.95;27.95;;;32.50;99.90;;;;;;5043732;28;20178;-68
2022/12/08 07:13:02;;;;;;;58.35;44.03;;;32.50;99.90;;;;;;5034808;28;20029;-66
2022/12/08 07:15:28;;;;;;;12.05;8.77;;;32.50;99.90;;;;;;5034262;28;20060;-66
2022/12/08 07:17:55;;;;;;;49.75;39.42;;;32.60;99.90;;;;;;5034761;28;20036;-65
2022/12/08 07:20:21;;;;;;;13.40;9.32;;;32.70;99.90;;;;;;5034704;28;20155;-64
2022/12/08 07:22:50;;;;;;;8.80;6.03;;;32.70;99.90;;;;;;5035049;28;20099;-63
2022/12/08 07:25:17;;;;;;;15.75;11.68;;;32.80;99.90;;;;;;5035342;28;20025;-65
2022/12/08 07:27:44;;;;;;;13.60;10.38;;;32.80;99.90;;;;;;5034638;28;20025;-65
2022/12/08 07:30:12;;;;;;;10.10;7.07;;;32.90;99.90;;;;;;5034960;28;20035;-63
2022/12/08 07:32:39;;;;;;;12.80;9.13;;;33.00;99.90;;;;;;5037289;28;20026;-64
2022/12/08 07:35:07;;;;;;;11.82;8.18;;;32.90;99.90;;;;;;5043460;28;20478;-63
2022/12/08 07:37:35;;;;;;;12.23;7.32;;;32.90;99.90;;;;;;5034844;28;20029;-64
2022/12/08 07:40:01;;;;;;;8.90;7.47;;;32.80;99.90;;;;;;5034627;28;20075;-65
2022/12/08 07:42:28;;;;;;;12.10;8.35;;;32.80;99.90;;;;;;5056351;28;20025;-65
2022/12/08 07:44:55;;;;;;;12.13;7.78;;;32.70;99.90;;;;;;5063615;28;20501;-68
2022/12/08 07:47:21;;;;;;;12.75;8.82;;;32.70;99.90;;;;;;5048217;28;20029;-66
2022/12/08 07:49:48;;;;;;;12.02;8.95;;;32.80;99.90;;;;;;5058234;28;20049;-66
2022/12/08 07:52:14;;;;;;;11.25;8.32;;;32.90;99.90;;;;;;5065029;28;20020;-66
2022/12/08 07:54:41;;;;;;;10.63;7.47;;;32.80;99.90;;;;;;5062398;28;20112;-66
2022/12/08 07:57:08;;;;;;;20.45;15.95;;;32.80;99.90;;;;;;5060537;28;20063;-64
2022/12/08 07:59:35;;;;;;;28.00;20.13;;;32.90;99.90;;;;;;5060126;28;20198;-66
2022/12/08 08:02:01;;;;;;;29.85;19.25;;;32.90;99.90;;;;;;5054077;28;20474;-65
2022/12/08 08:04:28;;;;;;;29.75;19.83;;;32.90;99.90;;;;;;5054480;28;20465;-65
2022/12/08 08:06:54;;;;;;;27.95;19.83;;;32.90;99.90;;;;;;5047372;28;20100;-66
2022/12/08 08:09:21;;;;;;;17.08;12.57;;;32.90;99.90;;;;;;5034538;28;20014;-66
2022/12/08 08:11:47;;;;;;;21.92;15.48;;;33.00;99.90;;;;;;5034226;28;20033;-63
2022/12/08 08:14:14;;;;;;;23.30;17.25;;;33.00;99.90;;;;;;5034088;28;20075;-64
2022/12/08 08:16:45;;;;;;;23.88;17.40;;;33.00;99.90;;;;;;5034351;28;20026;-65
2022/12/08 08:19:12;;;;;;;25.73;17.53;;;33.10;99.90;;;;;;5034101;28;20366;-65
2022/12/08 08:21:38;;;;;;;14.35;8.20;;;33.10;99.90;;;;;;5034328;28;20087;-65
2022/12/08 08:24:05;;;;;;;8.40;6.13;;;33.10;99.90;;;;;;5034533;28;20022;-64
2022/12/08 08:26:31;;;;;;;9.73;6.55;;;33.20;99.90;;;;;;5034055;28;20030;-65
2022/12/08 08:28:58;;;;;;;11.95;6.00;;;33.30;99.90;;;;;;5034135;28;20040;-64
2022/12/08 08:31:26;;;;;;;9.25;7.00;;;33.40;99.90;;;;;;5034059;28;20049;-64
2022/12/08 08:33:53;;;;;;;10.82;7.38;;;33.40;99.90;;;;;;5033543;28;20029;-64
2022/12/08 08:36:20;;;;;;;14.40;6.28;;;33.50;99.90;;;;;;5044584;28;20490;-64
2022/12/08 08:38:47;;;;;;;19.92;11.10;;;33.50;99.90;;;;;;5061474;28;20366;-64
2022/12/08 08:41:14;;;;;;;27.88;16.17;;;33.60;99.90;;;;;;5063124;28;20028;-64
2022/12/08 08:43:40;;;;;;;37.22;23.23;;;33.60;99.90;;;;;;5062575;28;20048;-65
2022/12/08 08:46:07;;;;;;;18.15;11.70;;;33.60;99.90;;;;;;5061188;28;20017;-64
2022/12/08 08:48:34;;;;;;;14.13;9.27;;;33.60;99.90;;;;;;5063836;28;20017;-65
2022/12/08 08:51:08;;;;;;;17.05;13.90;;;33.50;99.90;;;;;;5062543;28;20021;-65
2022/12/08 08:53:35;;;;;;;14.82;8.98;;;33.50;99.90;;;;;;5061417;28;20486;-65
2022/12/08 08:56:04;;;;;;;20.88;12.95;;;33.40;99.90;;;;;;5062453;28;20444;-65
2022/12/08 08:58:30;;;;;;;10.93;6.63;;;33.40;99.90;;;;;;5062484;28;20237;-65
2022/12/08 09:00:57;;;;;;;10.93;8.70;;;33.40;99.90;;;;;;5059144;28;20017;-65
2022/12/08 09:03:23;;;;;;;23.75;11.57;;;33.40;99.90;;;;;;5062212;28;20041;-66
2022/12/08 09:05:50;;;;;;;13.40;9.35;;;33.40;99.90;;;;;;5063357;28;20500;-66
2022/12/08 09:08:17;;;;;;;15.95;10.40;;;33.40;99.90;;;;;;5058240;28;20064;-66
2022/12/08 09:10:44;;;;;;;10.55;7.90;;;33.40;99.90;;;;;;5061880;28;20032;-66
2022/12/08 09:13:10;;;;;;;13.95;10.82;;;33.40;99.90;;;;;;5062918;28;20032;-66
2022/12/08 09:15:37;;;;;;;16.50;10.18;;;33.40;99.90;;;;;;5056188;28;20036;-66
2022/12/08 09:18:05;;;;;;;28.05;19.38;;;33.40;99.90;;;;;;5062254;28;20189;-66
2022/12/08 09:20:33;;;;;;;13.30;9.85;;;33.30;99.90;;;;;;5063099;28;20033;-66
2022/12/08 09:23:00;;;;;;;11.25;8.90;;;33.40;99.90;;;;;;5061691;28;20025;-66
2022/12/08 09:25:27;;;;;;;12.07;6.88;;;33.30;99.90;;;;;;5061572;28;20024;-66
2022/12/08 09:27:54;;;;;;;9.00;6.30;;;33.30;99.90;;;;;;5060656;28;20091;-67
2022/12/08 09:30:20;;;;;;;17.73;7.97;;;33.30;99.90;;;;;;5051853;28;20032;-67
2022/12/08 09:32:47;;;;;;;33.40;8.98;;;33.30;99.90;;;;;;5044038;28;20539;-68
2022/12/08 09:35:13;;;;;;;403.35;270.55;;;33.10;99.90;;;;;;5033238;28;20033;-68
2022/12/08 09:37:40;;;;;;;77.57;47.97;;;33.20;99.90;;;;;;5032937;28;20386;-68
2022/12/08 09:40:07;;;;;;;1009.80;510.70;;;33.20;99.90;;;;;;5032920;28;20025;-66
2022/12/08 09:42:46;;;;;;;447.85;253.98;;;33.20;99.90;;;;;;5032863;28;20017;-66
2022/12/08 09:45:15;;;;;;;175.98;90.38;;;33.10;99.90;;;;;;5043765;28;20025;-66
2022/12/08 09:48:05;;;;;;;167.90;104.75;;;33.20;99.90;;;;;;5058056;28;20529;-66
2022/12/08 09:50:44;;;;;;;39.13;21.73;;;33.20;99.90;;;;;;5052784;28;20485;-67
2022/12/08 09:53:17;;;;;;;57.13;31.85;;;33.10;99.90;;;;;;5052730;28;20104;-66
2022/12/08 09:55:56;;;;;;;85.07;50.28;;;33.10;99.90;;;;;;5052823;28;20086;-66
2022/12/08 09:58:44;;;;;;;495.45;263.38;;;33.00;99.90;;;;;;5052597;28;20025;-67
2022/12/08 10:01:11;;;;;;;77.93;50.95;;;32.90;99.90;;;;;;5052561;28;20036;-69
2022/12/08 10:03:39;;;;;;;62.35;40.72;;;32.90;99.90;;;;;;5037553;28;20429;-69
2022/12/08 10:06:17;;;;;;;69.70;43.17;;;32.90;99.90;;;;;;5041442;28;20028;-66
2022/12/08 10:09:08;;;;;;;110.22;63.60;;;32.90;99.90;;;;;;5032868;28;20463;-68
2022/12/08 10:11:47;;;;;;;103.45;59.95;;;32.90;99.90;;;;;;5032662;28;20044;-67
2022/12/08 10:14:15;;;;;;;84.53;52.47;;;32.80;99.90;;;;;;5032554;28;20432;-70
2022/12/08 10:16:47;;;;;;;69.95;44.95;;;32.70;99.90;;;;;;5032585;28;20120;-68
2022/12/08 10:19:24;;;;;;;75.10;36.50;;;32.60;99.90;;;;;;5032446;28;20037;-66
2022/12/08 10:21:52;;;;;;;55.08;27.42;;;32.50;99.90;;;;;;5032495;28;20037;-66
2022/12/08 10:24:24;;;;;;;275.98;117.03;;;32.40;99.90;;;;;;5033949;28;20030;-67
2022/12/08 10:26:50;;;;;;;159.95;67.93;;;32.30;99.90;;;;;;5036169;28;20026;-67
2022/12/08 10:29:17;;;;;;;61.47;30.00;;;32.30;99.90;;;;;;5047419;28;20020;-67
2022/12/08 10:31:44;;;;;;;52.08;27.20;;;32.30;99.90;;;;;;5056256;28;20049;-68
2022/12/08 10:34:23;;;;;;;52.33;22.40;;;32.10;99.90;;;;;;5040507;28;20025;-67
2022/12/08 10:36:59;;;;;;;25.70;13.30;;;31.90;99.90;;;;;;5040148;28;20033;-67
2022/12/08 10:39:30;;;;;;;242.88;81.00;;;31.60;99.90;;;;;;5045139;28;20383;-67
2022/12/08 10:42:05;;;;;;;555.63;212.52;;;31.40;99.90;;;;;;5035974;28;20025;-67
2022/12/08 10:44:32;;;;;;;1033.70;495.42;;;31.50;99.90;;;;;;5046901;28;20025;-67
2022/12/08 10:46:58;;;;;;;670.78;352.90;;;31.40;99.90;;;;;;5035958;28;20083;-67
2022/12/08 10:49:32;;;;;;;341.35;160.63;;;31.30;99.90;;;;;;5039621;28;20021;-67
2022/12/08 10:51:58;;;;;;;96.10;39.72;;;30.90;99.90;;;;;;5063281;28;20423;-65
2022/12/08 10:54:32;;;;;;;45.10;19.10;;;30.30;99.90;;;;;;5064701;28;20063;-66
2022/12/08 10:56:58;;;;;;;29.05;12.07;;;30.00;99.90;;;;;;5065451;28;20108;-66
2022/12/08 10:59:25;;;;;;;31.75;10.63;;;29.70;99.90;;;;;;5063944;28;20555;-66
2022/12/08 11:01:54;;;;;;;23.70;9.93;;;29.50;99.90;;;;;;5065242;28;20488;-67
2022/12/08 11:04:35;;;;;;;22.63;9.10;;;29.20;99.90;;;;;;5066021;28;20372;-67
2022/12/08 11:07:05;;;;;;;13.23;7.82;;;29.20;99.90;;;;;;5064927;28;20028;-68
2022/12/08 11:09:47;;;;;;;14.65;7.35;;;29.20;99.90;;;;;;5062050;28;20115;-67
2022/12/08 11:12:15;;;;;;;15.02;8.13;;;29.10;99.90;;;;;;5062336;28;20036;-68
2022/12/08 11:14:42;;;;;;;94.20;68.38;;;29.10;99.90;;;;;;5064341;28;20047;-67
2022/12/08 11:17:14;;;;;;;43.17;30.45;;;29.00;99.90;;;;;;5064014;28;20028;-69
2022/12/08 11:19:44;;;;;;;48.95;26.55;;;29.00;99.90;;;;;;5062675;28;20082;-68
2022/12/08 11:22:23;;;;;;;34.45;19.58;;;28.90;99.90;;;;;;5059718;28;20481;-67
2022/12/08 11:25:16;;;;;;;22.15;7.97;;;28.80;99.90;;;;;;5055878;28;20025;-67
2022/12/08 11:27:47;;;;;;;14.13;6.80;;;28.80;99.90;;;;;;5035274;28;20038;-68
2022/12/08 11:30:20;;;;;;;12.90;5.93;;;28.50;99.90;;;;;;5035022;28;20052;-68
2022/12/08 11:32:52;;;;;;;6.70;4.95;;;28.30;99.90;;;;;;5034986;28;20056;-67
2022/12/08 11:35:30;;;;;;;9.32;5.25;;;28.30;99.90;;;;;;5034904;28;20037;-67
2022/12/08 11:38:10;;;;;;;11.95;4.97;;;28.30;99.90;;;;;;5034970;28;20128;-66
2022/12/08 11:40:41;;;;;;;119.78;79.63;;;28.30;99.90;;;;;;5034658;28;20104;-67
2022/12/08 11:43:35;;;;;;;69.78;50.70;;;28.30;99.90;;;;;;5034765;28;20025;-66
2022/12/08 11:46:23;;;;;;;86.03;60.83;;;28.20;99.90;;;;;;5037363;28;20033;-69
2022/12/08 11:49:03;;;;;;;68.05;44.10;;;28.10;99.90;;;;;;5053113;28;20044;-67
2022/12/08 11:51:34;;;;;;;25.08;11.32;;;28.20;99.90;;;;;;5053544;28;20048;-67
2022/12/08 11:54:00;;;;;;;10.88;6.55;;;28.20;99.90;;;;;;5053507;28;20035;-67
2022/12/08 11:56:31;;;;;;;11.73;6.05;;;28.20;99.90;;;;;;5053065;28;20116;-68
2022/12/08 11:59:02;;;;;;;11.52;7.00;;;28.20;99.90;;;;;;5053734;28;20040;-68
2022/12/08 12:01:28;;;;;;;14.68;8.02;;;28.20;99.90;;;;;;5053192;28;20052;-67
2022/12/08 12:04:03;;;;;;;16.13;7.72;;;28.20;99.90;;;;;;5053793;28;20037;-66
2022/12/08 12:06:33;;;;;;;17.25;7.53;;;28.30;99.90;;;;;;5053260;28;20024;-67
2022/12/08 12:09:14;;;;;;;20.23;9.20;;;28.30;99.90;;;;;;5053283;28;20032;-66
2022/12/08 12:14:46;;;;;;;11.80;7.57;;;28.10;99.90;;;;;;5054812;28;20494;-66
2022/12/08 12:17:39;;;;;;;12.70;7.53;;;28.00;99.90;;;;;;5057294;28;20482;-66
2022/12/08 12:20:31;;;;;;;16.25;8.65;;;28.00;99.90;;;;;;5058667;28;20043;-67
2022/12/08 12:23:07;;;;;;;14.82;7.45;;;28.00;99.90;;;;;;5010415;28;20037;-66
2022/12/08 12:25:35;;;;;;;13.20;7.55;;;28.00;99.90;;;;;;5018064;28;20037;-67
2022/12/08 12:28:07;;;;;;;21.52;8.30;;;27.90;99.90;;;;;;5032406;28;20033;-66
2022/12/08 12:30:50;;;;;;;12.10;7.53;;;27.90;99.90;;;;;;5032755;28;20288;-67
2022/12/08 12:33:18;;;;;;;16.73;7.93;;;27.90;99.90;;;;;;5032279;28;20038;-66
2022/12/08 12:35:47;;;;;;;13.68;7.38;;;27.90;99.90;;;;;;5032543;28;20417;-66
2022/12/08 12:41:07;;;;;;;14.75;6.75;;;27.80;99.90;;;;;;5012673;28;20124;-66
2022/12/08 12:43:36;;;;;;;11.35;7.13;;;27.90;99.90;;;;;;5012088;28;20037;-66
2022/12/08 12:46:22;;;;;;;11.40;7.00;;;27.80;99.90;;;;;;5008231;28;20027;-68
2022/12/08 12:48:50;;;;;;;14.18;7.63;;;27.90;99.90;;;;;;4992379;28;20452;-67
2022/12/08 12:51:38;;;;;;;11.77;7.13;;;27.90;99.90;;;;;;4992965;28;20041;-67
2022/12/08 12:54:26;;;;;;;9.35;6.60;;;27.90;99.90;;;;;;4992793;28;20026;-67
2022/12/08 12:57:13;;;;;;;17.40;8.93;;;27.90;99.90;;;;;;4992381;28;20027;-67